METAR Data
IDs: Format: Raw Decoded Include TAF

Data at: 1323 UTC 26 Feb 2021

KC29 261315Z AUTO 20005KT 3/4SM OVC002 M04/M05 A3017 RMK AO1 T10441053